Time;durP1;ratioP1;P1;durP2;ratioP2;P2;SDS_P1;SDS_P2;PMS_P1;PMS_P2;Temp;Humidity;BMP_temperature;BMP_pressure;BME280_temperature;BME280_humidity;BME280_pressure;Samples;Min_cycle;Max_cycle;Signal;HPM_P1;HPM_P2
2022/07/09 00:01:57;;;;;;;1.83;1.73;;;15.30;99.90;;;;;;5033102;28;20403;-65
2022/07/09 00:04:23;;;;;;;1.60;1.50;;;15.30;99.90;;;;;;5033080;28;20406;-66
2022/07/09 00:06:49;;;;;;;2.00;1.90;;;15.20;99.90;;;;;;5032976;28;20179;-66
2022/07/09 00:09:14;;;;;;;3.40;2.10;;;15.20;99.90;;;;;;5032981;28;20191;-65
2022/07/09 00:11:40;;;;;;;2.63;1.93;;;15.10;99.90;;;;;;5033081;28;20582;-65
2022/07/09 00:14:05;;;;;;;2.43;1.70;;;15.10;99.90;;;;;;5033091;28;20181;-65
2022/07/09 00:16:31;;;;;;;2.00;1.60;;;15.00;99.90;;;;;;5032705;28;20171;-65
2022/07/09 00:18:56;;;;;;;1.83;1.63;;;15.00;99.90;;;;;;5033155;28;20295;-65
2022/07/09 00:21:22;;;;;;;3.73;1.70;;;15.00;99.90;;;;;;5032738;28;20175;-65
2022/07/09 00:23:48;;;;;;;1.97;1.67;;;14.90;99.90;;;;;;5032747;28;20254;-66
2022/07/09 00:26:14;;;;;;;1.20;1.10;;;14.90;99.90;;;;;;5032586;28;20160;-65
2022/07/09 00:28:39;;;;;;;3.80;1.77;;;14.70;99.90;;;;;;5032416;28;20186;-65
2022/07/09 00:31:05;;;;;;;3.93;2.67;;;14.70;99.90;;;;;;5055452;22;20854;-71
2022/07/09 00:33:31;;;;;;;2.23;1.93;;;14.70;99.90;;;;;;5033016;28;20231;-71
2022/07/09 00:35:56;;;;;;;1.87;1.63;;;14.70;99.90;;;;;;5033988;28;20252;-71
2022/07/09 00:38:22;;;;;;;1.67;1.57;;;14.70;99.90;;;;;;5034042;28;20306;-71
2022/07/09 00:40:47;;;;;;;2.07;1.73;;;14.50;99.90;;;;;;5034028;28;20191;-72
2022/07/09 00:43:17;;;;;;;1.87;1.43;;;14.50;99.90;;;;;;5032427;28;20164;-71
2022/07/09 00:45:44;;;;;;;1.70;1.60;;;14.50;99.90;;;;;;5031164;28;20250;-71
2022/07/09 00:48:09;;;;;;;2.20;2.00;;;14.40;99.90;;;;;;5017491;28;20414;-71
2022/07/09 00:50:36;;;;;;;1.70;1.40;;;14.40;99.90;;;;;;5033660;28;20427;-71
2022/07/09 00:53:02;;;;;;;2.00;1.50;;;14.30;99.90;;;;;;5033412;28;20615;-71
2022/07/09 00:55:28;;;;;;;2.80;1.90;;;14.20;99.90;;;;;;5033608;28;20410;-72
2022/07/09 00:57:54;;;;;;;2.57;2.00;;;14.20;99.90;;;;;;5033788;28;20200;-71
2022/07/09 01:00:20;;;;;;;1.80;1.70;;;14.20;99.90;;;;;;5033540;28;20793;-71
2022/07/09 01:02:49;;;;;;;2.43;1.87;;;14.20;99.90;;;;;;5033721;28;20414;-71
2022/07/09 01:05:14;;;;;;;2.53;1.80;;;14.10;99.90;;;;;;5033513;28;20248;-71
2022/07/09 01:07:40;;;;;;;5.23;2.97;;;14.10;99.90;;;;;;5033401;28;20502;-71
2022/07/09 01:10:06;;;;;;;2.50;1.50;;;14.10;99.90;;;;;;5030069;28;20733;-71
2022/07/09 01:12:32;;;;;;;2.43;1.90;;;14.10;99.90;;;;;;5033458;28;20438;-71
2022/07/09 01:14:58;;;;;;;1.50;1.40;;;14.10;99.90;;;;;;5033131;28;20211;-71
2022/07/09 01:17:23;;;;;;;2.07;1.70;;;14.10;99.90;;;;;;5033475;28;20500;-71
2022/07/09 01:19:49;;;;;;;2.70;2.17;;;14.10;99.90;;;;;;5032925;28;20192;-71
2022/07/09 01:22:14;;;;;;;1.80;1.70;;;14.10;99.90;;;;;;5031963;28;20171;-71
2022/07/09 01:24:40;;;;;;;2.80;2.60;;;14.10;99.90;;;;;;5033061;28;20321;-72
2022/07/09 01:27:07;;;;;;;2.93;1.80;;;13.90;99.90;;;;;;5033141;28;20175;-72
2022/07/09 01:29:33;;;;;;;2.07;1.83;;;13.90;99.90;;;;;;5032949;28;20676;-71
2022/07/09 01:31:58;;;;;;;4.00;2.27;;;13.90;99.90;;;;;;5033112;28;20406;-72
2022/07/09 01:34:24;;;;;;;3.87;2.20;;;13.90;99.90;;;;;;5033031;28;20659;-71
2022/07/09 01:36:49;;;;;;;1.57;1.30;;;13.80;99.90;;;;;;5032934;28;20167;-71
2022/07/09 01:39:15;;;;;;;3.07;2.07;;;13.80;99.90;;;;;;5032989;28;20190;-72
2022/07/09 01:41:40;;;;;;;3.53;2.33;;;13.70;99.90;;;;;;5032812;28;20249;-71
2022/07/09 01:44:06;;;;;;;9.43;2.10;;;13.70;99.90;;;;;;5032752;28;20214;-71
2022/07/09 01:46:33;;;;;;;4.93;2.07;;;13.60;99.90;;;;;;5032206;28;20175;-71
2022/07/09 01:48:58;;;;;;;2.40;2.20;;;13.60;99.90;;;;;;5032581;28;20406;-71
2022/07/09 01:51:24;;;;;;;1.73;1.63;;;13.70;99.90;;;;;;5032945;28;20893;-72
2022/07/09 01:53:49;;;;;;;2.17;1.90;;;13.80;99.90;;;;;;5032700;28;20171;-72
2022/07/09 01:56:15;;;;;;;10.20;2.10;;;13.80;99.90;;;;;;5032371;28;20213;-71
2022/07/09 01:58:41;;;;;;;2.60;1.87;;;13.60;99.90;;;;;;5032905;28;20249;-73
2022/07/09 02:01:06;;;;;;;2.50;1.87;;;13.60;99.90;;;;;;5032414;28;20187;-71
2022/07/09 02:03:32;;;;;;;5.00;1.80;;;13.50;99.90;;;;;;5032575;28;20642;-71
2022/07/09 02:05:57;;;;;;;2.40;1.80;;;13.50;99.90;;;;;;5032415;28;20569;-71
2022/07/09 02:08:23;;;;;;;4.53;2.70;;;13.40;99.90;;;;;;5032431;28;20167;-71
2022/07/09 02:10:51;;;;;;;5.73;2.13;;;13.40;99.90;;;;;;5032325;28;20317;-72
2022/07/09 02:13:17;;;;;;;6.30;2.40;;;13.40;99.90;;;;;;5032189;28;20167;-72
2022/07/09 02:15:42;;;;;;;2.17;1.93;;;13.40;99.90;;;;;;5031837;28;20749;-72
2022/07/09 02:18:08;;;;;;;2.67;2.00;;;13.30;99.90;;;;;;5034473;28;20191;-72
2022/07/09 02:20:34;;;;;;;1.73;1.50;;;13.30;99.90;;;;;;5037214;28;20199;-72
2022/07/09 02:22:59;;;;;;;3.23;2.87;;;13.20;99.90;;;;;;5037969;28;20168;-72
2022/07/09 02:25:25;;;;;;;4.50;2.90;;;13.20;99.90;;;;;;5038141;28;20182;-72
2022/07/09 02:27:50;;;;;;;3.43;2.13;;;13.10;99.90;;;;;;5034238;28;20175;-72
2022/07/09 02:30:16;;;;;;;5.93;2.73;;;13.20;99.90;;;;;;5032349;28;20776;-71
2022/07/09 02:32:41;;;;;;;3.53;2.10;;;13.30;99.90;;;;;;5032948;28;20180;-72
2022/07/09 02:35:08;;;;;;;4.13;2.30;;;13.20;99.90;;;;;;5032391;28;20515;-72
2022/07/09 02:37:33;;;;;;;3.13;2.60;;;13.10;99.90;;;;;;5032549;28;20249;-72
2022/07/09 02:39:59;;;;;;;2.33;2.13;;;13.10;99.90;;;;;;5032454;28;21083;-71
2022/07/09 02:42:25;;;;;;;3.03;2.00;;;13.10;99.90;;;;;;5032285;28;20225;-71
2022/07/09 02:44:50;;;;;;;2.50;2.40;;;13.40;99.90;;;;;;5030442;28;20770;-71
2022/07/09 02:47:16;;;;;;;6.83;2.70;;;13.40;99.90;;;;;;5031937;28;20168;-71
2022/07/09 02:49:42;;;;;;;5.63;2.70;;;13.30;99.90;;;;;;5032106;28;20733;-72
2022/07/09 02:52:07;;;;;;;3.23;2.10;;;13.30;99.90;;;;;;5031906;28;20179;-71
2022/07/09 02:54:33;;;;;;;4.33;2.30;;;13.40;99.90;;;;;;5031540;28;20167;-71
2022/07/09 02:56:59;;;;;;;8.70;4.87;;;13.50;99.90;;;;;;5031759;28;20194;-71
2022/07/09 02:59:25;;;;;;;3.90;3.50;;;13.50;99.90;;;;;;5036056;28;20513;-72
2022/07/09 03:01:51;;;;;;;2.20;2.00;;;13.40;99.90;;;;;;5035758;28;20402;-71
2022/07/09 03:04:17;;;;;;;3.30;1.63;;;13.50;99.90;;;;;;5036119;28;20405;-72
2022/07/09 03:06:42;;;;;;;3.67;2.10;;;13.60;99.90;;;;;;5036424;28;20170;-71
2022/07/09 03:09:08;;;;;;;11.30;2.40;;;13.60;99.90;;;;;;5036008;28;20217;-71
2022/07/09 03:11:33;;;;;;;8.33;2.10;;;13.50;99.90;;;;;;5036164;28;20189;-71
2022/07/09 03:13:59;;;;;;;2.00;1.90;;;13.70;99.90;;;;;;5036189;28;20167;-71
2022/07/09 03:16:25;;;;;;;2.80;1.97;;;13.80;99.90;;;;;;5035496;28;20172;-71
2022/07/09 03:18:50;;;;;;;2.43;2.23;;;13.90;99.90;;;;;;5035852;28;20663;-71
2022/07/09 03:21:16;;;;;;;4.60;2.20;;;13.70;99.90;;;;;;5035667;28;20180;-71
2022/07/09 03:23:41;;;;;;;5.00;2.63;;;13.70;99.90;;;;;;5035518;28;20222;-71
2022/07/09 03:26:07;;;;;;;3.43;2.50;;;13.70;99.90;;;;;;5035353;28;20550;-72
2022/07/09 03:28:33;;;;;;;6.63;2.70;;;13.80;99.90;;;;;;5035709;28;20179;-71
2022/07/09 03:30:59;;;;;;;3.30;2.53;;;13.90;99.90;;;;;;5035211;28;20246;-71
2022/07/09 03:33:25;;;;;;;2.73;2.47;;;13.80;99.90;;;;;;5035363;28;20410;-71
2022/07/09 03:35:54;;;;;;;4.13;2.20;;;13.90;99.90;;;;;;5035303;28;20673;-71
2022/07/09 03:38:19;;;;;;;2.33;2.13;;;13.90;99.90;;;;;;5035385;28;20446;-71
2022/07/09 03:40:45;;;;;;;5.70;2.80;;;13.80;99.90;;;;;;5035183;28;20948;-71
2022/07/09 03:43:11;;;;;;;3.43;2.30;;;14.00;99.90;;;;;;5035211;28;20167;-71
2022/07/09 03:45:36;;;;;;;1.93;1.83;;;14.00;99.90;;;;;;5034599;28;20168;-71
2022/07/09 03:48:02;;;;;;;2.23;1.93;;;14.10;99.90;;;;;;5033914;28;20529;-71
2022/07/09 03:50:28;;;;;;;2.97;2.60;;;14.20;99.90;;;;;;5035157;28;20709;-72
2022/07/09 03:52:53;;;;;;;2.07;1.77;;;14.10;99.90;;;;;;5034866;28;20410;-72
2022/07/09 03:55:19;;;;;;;2.37;1.77;;;14.10;99.90;;;;;;5034617;28;20172;-72
2022/07/09 03:57:45;;;;;;;3.33;1.83;;;14.20;99.90;;;;;;5035315;28;20199;-71
2022/07/09 04:00:11;;;;;;;3.47;1.90;;;14.10;99.90;;;;;;5034589;28;20425;-72
2022/07/09 04:02:36;;;;;;;2.53;2.33;;;14.20;99.90;;;;;;5034748;28;20588;-72
2022/07/09 04:05:02;;;;;;;2.00;1.80;;;14.20;99.90;;;;;;5034533;28;20402;-71
2022/07/09 04:07:28;;;;;;;2.60;1.90;;;14.20;99.90;;;;;;5034589;28;20217;-71
2022/07/09 04:09:53;;;;;;;2.70;2.50;;;14.30;99.90;;;;;;5034649;28;20693;-71
2022/07/09 04:12:20;;;;;;;2.00;1.90;;;14.30;99.90;;;;;;5034578;28;20168;-71
2022/07/09 04:14:45;;;;;;;4.83;1.90;;;14.30;99.90;;;;;;5034224;28;20203;-71
2022/07/09 04:17:11;;;;;;;2.03;1.83;;;14.30;99.90;;;;;;5034458;28;20480;-71
2022/07/09 04:19:37;;;;;;;3.20;2.10;;;14.40;99.90;;;;;;5034751;28;20283;-72
2022/07/09 04:22:03;;;;;;;2.00;1.67;;;14.50;99.90;;;;;;5034598;28;20165;-72
2022/07/09 04:24:29;;;;;;;2.10;1.90;;;14.60;99.90;;;;;;5034183;28;20188;-72
2022/07/09 04:26:55;;;;;;;2.70;2.00;;;14.50;99.90;;;;;;5034412;28;20863;-72
2022/07/09 04:29:21;;;;;;;4.63;2.37;;;14.90;99.90;;;;;;5034288;28;20244;-71
2022/07/09 04:31:46;;;;;;;4.67;2.47;;;14.80;99.90;;;;;;5034357;28;20407;-71
2022/07/09 04:34:12;;;;;;;2.00;1.63;;;14.90;99.90;;;;;;5034299;28;20160;-71
2022/07/09 04:36:37;;;;;;;2.33;2.13;;;14.70;99.90;;;;;;5034109;28;20169;-71
2022/07/09 04:39:03;;;;;;;3.43;1.90;;;14.60;99.90;;;;;;5034302;28;20205;-71
2022/07/09 04:41:29;;;;;;;3.10;2.17;;;14.70;99.90;;;;;;5034441;28;20163;-71
2022/07/09 04:43:55;;;;;;;2.40;1.53;;;14.90;99.90;;;;;;5034753;28;20402;-71
2022/07/09 04:46:26;;;;;;;4.10;1.80;;;14.90;99.90;;;;;;5043021;28;20654;-71
2022/07/09 04:48:52;;;;;;;3.00;1.93;;;14.80;99.90;;;;;;5053178;28;20167;-71
2022/07/09 04:51:18;;;;;;;2.40;2.20;;;14.90;99.90;;;;;;5053821;28;20485;-71
2022/07/09 04:53:43;;;;;;;3.17;1.63;;;14.80;99.90;;;;;;5042562;28;20427;-71
2022/07/09 04:56:09;;;;;;;2.60;1.57;;;14.80;99.90;;;;;;5051370;28;20191;-71
2022/07/09 04:58:36;;;;;;;3.03;2.10;;;14.60;99.90;;;;;;5042739;28;20191;-71
2022/07/09 05:01:02;;;;;;;3.60;2.73;;;14.80;99.90;;;;;;5034133;28;20191;-71
2022/07/09 05:03:28;;;;;;;2.67;1.93;;;14.90;99.90;;;;;;5033692;28;20923;-71
2022/07/09 05:05:53;;;;;;;1.70;1.60;;;15.00;99.90;;;;;;5033503;28;20409;-71
2022/07/09 05:08:19;;;;;;;2.30;1.73;;;14.80;99.90;;;;;;5033633;28;20179;-72
2022/07/09 05:10:45;;;;;;;2.60;2.40;;;14.80;99.90;;;;;;5033475;28;20200;-72
2022/07/09 05:13:10;;;;;;;3.20;2.17;;;14.90;99.90;;;;;;5033415;28;20173;-71
2022/07/09 05:15:36;;;;;;;5.37;1.80;;;15.00;99.90;;;;;;5033104;28;20187;-71
2022/07/09 05:18:02;;;;;;;2.90;1.30;;;15.10;99.90;;;;;;5033439;28;20223;-72
2022/07/09 05:20:27;;;;;;;3.27;1.83;;;15.20;99.90;;;;;;5032819;28;20192;-71
2022/07/09 05:22:53;;;;;;;2.40;2.10;;;15.30;99.90;;;;;;5033246;28;20658;-71
2022/07/09 05:25:19;;;;;;;1.57;1.47;;;15.20;99.90;;;;;;5033049;28;20403;-71
2022/07/09 05:27:46;;;;;;;6.33;2.60;;;15.30;99.90;;;;;;5033605;28;20253;-71
2022/07/09 05:30:14;;;;;;;2.33;2.03;;;15.50;99.90;;;;;;5033074;28;20285;-72
2022/07/09 05:32:41;;;;;;;3.57;1.43;;;15.70;99.90;;;;;;5033196;28;20953;-72
2022/07/09 05:35:07;;;;;;;4.50;2.20;;;15.70;99.90;;;;;;5036615;28;20410;-72
2022/07/09 05:37:33;;;;;;;2.87;1.90;;;15.90;99.90;;;;;;5037169;28;20964;-72
2022/07/09 05:40:00;;;;;;;6.87;2.30;;;15.90;99.90;;;;;;5037441;28;20475;-72
2022/07/09 05:42:25;;;;;;;2.07;1.60;;;15.70;99.90;;;;;;5033299;28;20227;-71
2022/07/09 05:44:51;;;;;;;3.80;2.40;;;16.10;99.90;;;;;;5032561;28;20406;-71
2022/07/09 05:47:16;;;;;;;6.60;1.97;;;15.90;99.90;;;;;;5032864;28;20206;-71
2022/07/09 05:49:42;;;;;;;3.90;1.93;;;15.90;99.90;;;;;;5032756;28;20192;-71
2022/07/09 05:52:08;;;;;;;3.20;1.60;;;16.00;99.90;;;;;;5032887;28;20196;-71
2022/07/09 05:54:33;;;;;;;1.93;1.73;;;16.10;99.90;;;;;;5032626;28;20175;-72
2022/07/09 05:56:59;;;;;;;4.30;1.73;;;16.50;99.90;;;;;;5031793;28;20254;-71
2022/07/09 05:59:25;;;;;;;4.13;1.70;;;16.50;99.90;;;;;;5032811;28;20429;-71
2022/07/09 06:01:50;;;;;;;2.10;1.90;;;16.20;99.90;;;;;;5032691;28;20171;-71
2022/07/09 06:04:16;;;;;;;2.17;1.97;;;16.50;99.90;;;;;;5032977;28;20178;-71
2022/07/09 06:06:41;;;;;;;2.30;2.00;;;16.20;99.90;;;;;;5032704;28;20239;-71
2022/07/09 06:09:07;;;;;;;4.70;1.87;;;15.80;99.90;;;;;;5032512;28;20319;-71
2022/07/09 06:11:33;;;;;;;6.27;1.90;;;16.10;99.90;;;;;;5032411;28;20177;-71
2022/07/09 06:13:59;;;;;;;4.60;1.83;;;16.60;99.90;;;;;;5032494;28;20739;-71
2022/07/09 06:16:24;;;;;;;1.80;1.70;;;16.90;99.90;;;;;;5032238;28;20529;-71
2022/07/09 06:18:50;;;;;;;3.47;2.37;;;17.10;99.90;;;;;;5032389;28;20451;-71
2022/07/09 06:21:15;;;;;;;1.47;1.20;;;17.20;99.90;;;;;;5032615;28;20438;-71
2022/07/09 06:23:41;;;;;;;4.53;2.00;;;16.90;99.90;;;;;;5032118;28;20616;-71
2022/07/09 06:26:06;;;;;;;4.30;1.83;;;16.80;99.90;;;;;;5032016;28;20216;-72
2022/07/09 06:28:35;;;;;;;5.10;1.77;;;17.00;99.90;;;;;;5032358;28;20182;-72
2022/07/09 06:31:00;;;;;;;3.17;2.20;;;17.10;99.90;;;;;;5051983;23;20224;-66
2022/07/09 06:33:26;;;;;;;1.60;1.50;;;16.90;99.90;;;;;;5031381;28;20417;-66
2022/07/09 06:35:51;;;;;;;2.27;1.53;;;17.10;99.90;;;;;;5031389;28;20609;-65
2022/07/09 06:38:17;;;;;;;4.27;3.53;;;17.10;99.90;;;;;;5031160;28;20199;-66
2022/07/09 06:40:42;;;;;;;2.70;2.00;;;17.60;99.90;;;;;;5031332;28;20218;-66
2022/07/09 06:43:09;;;;;;;1.57;1.40;;;17.50;99.90;;;;;;5031440;28;20707;-67
2022/07/09 06:45:35;;;;;;;2.73;1.93;;;17.50;99.90;;;;;;5031340;28;20206;-66
2022/07/09 06:48:01;;;;;;;2.90;1.83;;;17.10;99.90;;;;;;5031704;28;21070;-66
2022/07/09 06:50:26;;;;;;;2.70;2.23;;;17.10;99.90;;;;;;5031336;28;20436;-66
2022/07/09 06:52:52;;;;;;;4.07;1.90;;;17.10;99.90;;;;;;5031170;28;20182;-66
2022/07/09 06:55:17;;;;;;;1.70;1.60;;;17.50;99.90;;;;;;5031210;28;20543;-65
2022/07/09 06:57:43;;;;;;;5.13;2.77;;;17.40;99.90;;;;;;5031227;28;20633;-65
2022/07/09 07:00:09;;;;;;;1.83;1.43;;;17.20;99.90;;;;;;5031491;28;20183;-66
2022/07/09 07:02:34;;;;;;;1.80;1.67;;;17.40;99.90;;;;;;5031724;28;20160;-68
2022/07/09 07:05:00;;;;;;;2.70;1.73;;;17.40;99.90;;;;;;5030812;28;20409;-66
2022/07/09 07:07:26;;;;;;;1.60;1.50;;;17.30;99.90;;;;;;5030671;28;20205;-66
2022/07/09 07:09:52;;;;;;;3.90;1.97;;;17.60;99.90;;;;;;5030928;28;20657;-66
2022/07/09 07:12:17;;;;;;;1.93;1.47;;;17.40;99.90;;;;;;5030816;28;20174;-66
2022/07/09 07:14:43;;;;;;;2.53;1.50;;;17.70;99.90;;;;;;5030563;28;20185;-66
2022/07/09 07:17:09;;;;;;;1.67;1.23;;;18.10;99.90;;;;;;5030823;28;20549;-66
2022/07/09 07:19:34;;;;;;;1.70;1.60;;;18.20;99.90;;;;;;5030733;28;20194;-67
2022/07/09 07:22:00;;;;;;;3.00;2.70;;;18.50;99.90;;;;;;5030663;28;20262;-66
2022/07/09 07:24:26;;;;;;;2.03;1.33;;;18.50;99.90;;;;;;5030657;28;20167;-66
2022/07/09 07:26:51;;;;;;;1.73;1.60;;;17.80;99.90;;;;;;5030707;28;20725;-66
2022/07/09 07:29:17;;;;;;;4.43;2.07;;;18.20;99.90;;;;;;5030764;28;20190;-66
2022/07/09 07:31:43;;;;;;;2.00;1.30;;;18.40;99.90;;;;;;5030671;28;20173;-66
2022/07/09 07:34:08;;;;;;;5.20;1.50;;;17.90;99.90;;;;;;5030942;28;20653;-66
2022/07/09 07:36:34;;;;;;;4.50;1.70;;;18.00;99.90;;;;;;5030538;28;20726;-66
2022/07/09 07:39:00;;;;;;;2.40;1.43;;;18.10;99.90;;;;;;5030896;28;20209;-66
2022/07/09 07:41:25;;;;;;;2.47;1.60;;;18.10;99.90;;;;;;5030880;28;20570;-66
2022/07/09 07:43:51;;;;;;;4.90;1.60;;;18.00;99.90;;;;;;5033280;28;20172;-66
2022/07/09 07:46:16;;;;;;;7.40;4.07;;;18.50;99.90;;;;;;5034184;28;20173;-66
2022/07/09 07:48:42;;;;;;;5.40;2.67;;;18.60;99.90;;;;;;5034442;28;20254;-66
2022/07/09 07:51:08;;;;;;;3.73;1.80;;;18.40;99.90;;;;;;5033969;28;20285;-66
2022/07/09 07:53:34;;;;;;;2.17;1.50;;;18.70;99.90;;;;;;5034293;28;20172;-66
2022/07/09 07:56:01;;;;;;;4.27;2.40;;;18.60;99.90;;;;;;5034017;28;20412;-66
2022/07/09 07:58:26;;;;;;;5.10;3.10;;;18.30;99.90;;;;;;5032751;28;20203;-66
2022/07/09 08:00:53;;;;;;;4.83;2.70;;;18.20;99.90;;;;;;5034014;28;20502;-66
2022/07/09 08:03:18;;;;;;;2.60;2.20;;;18.00;99.90;;;;;;5034047;28;20247;-66
2022/07/09 08:05:44;;;;;;;2.70;1.40;;;18.40;99.90;;;;;;5033629;28;20594;-66
2022/07/09 08:08:09;;;;;;;3.90;2.20;;;18.00;99.90;;;;;;5034086;28;20173;-66
2022/07/09 08:10:35;;;;;;;2.03;1.87;;;17.60;99.90;;;;;;5033786;28;20229;-66
2022/07/09 08:13:00;;;;;;;2.10;1.90;;;17.20;99.90;;;;;;5033905;28;20660;-66
2022/07/09 08:15:26;;;;;;;3.63;2.07;;;17.50;99.90;;;;;;5033386;28;20664;-66
2022/07/09 08:17:51;;;;;;;5.00;2.37;;;17.80;99.90;;;;;;5033661;28;20268;-66
2022/07/09 08:20:19;;;;;;;4.67;2.07;;;18.30;99.90;;;;;;5032328;28;20547;-66
2022/07/09 08:22:45;;;;;;;4.13;2.37;;;18.30;99.90;;;;;;5033630;28;20923;-66
2022/07/09 08:25:11;;;;;;;3.33;2.53;;;18.60;99.90;;;;;;5033484;28;20407;-66
2022/07/09 08:27:36;;;;;;;4.20;2.83;;;18.40;99.90;;;;;;5033574;28;20217;-66
2022/07/09 08:30:02;;;;;;;2.80;2.40;;;18.90;99.90;;;;;;5033376;28;20220;-66
2022/07/09 08:32:28;;;;;;;2.03;1.83;;;18.70;99.90;;;;;;5033696;28;20699;-66
2022/07/09 08:34:54;;;;;;;2.00;1.80;;;18.70;99.90;;;;;;5033134;28;20249;-66
2022/07/09 08:37:20;;;;;;;4.23;2.30;;;19.00;99.90;;;;;;5033281;28;20537;-66
2022/07/09 08:39:45;;;;;;;7.07;1.97;;;19.00;99.90;;;;;;5033390;28;20206;-66
2022/07/09 08:42:11;;;;;;;4.03;2.20;;;18.90;99.90;;;;;;5033207;28;20564;-67
2022/07/09 08:44:39;;;;;;;2.70;1.77;;;18.50;99.90;;;;;;5033046;28;20197;-66
2022/07/09 08:47:05;;;;;;;1.80;1.50;;;19.00;99.90;;;;;;5033248;28;20172;-66
2022/07/09 08:49:31;;;;;;;1.90;1.60;;;18.60;99.90;;;;;;5033080;28;20443;-66
2022/07/09 08:51:57;;;;;;;1.97;1.50;;;19.10;99.90;;;;;;5033272;28;20412;-65
2022/07/09 08:54:23;;;;;;;2.53;1.87;;;19.20;99.90;;;;;;5032254;28;20476;-66
2022/07/09 08:56:52;;;;;;;3.03;2.00;;;19.40;99.90;;;;;;5033324;28;20412;-66
2022/07/09 08:59:18;;;;;;;3.00;1.80;;;19.40;99.90;;;;;;5033163;28;20412;-66
2022/07/09 09:01:43;;;;;;;2.93;2.40;;;19.40;99.90;;;;;;5032731;28;20517;-66
2022/07/09 09:04:09;;;;;;;1.60;1.50;;;19.00;99.90;;;;;;5032735;28;20166;-66
2022/07/09 09:06:39;;;;;;;5.77;2.30;;;19.50;99.90;;;;;;5033178;28;20175;-66
2022/07/09 09:09:08;;;;;;;3.33;1.50;;;19.60;99.90;;;;;;5032830;28;20673;-66
2022/07/09 09:11:36;;;;;;;1.67;1.50;;;19.50;99.90;;;;;;5032618;28;20520;-65
2022/07/09 09:14:02;;;;;;;3.10;1.60;;;19.20;99.90;;;;;;5032853;28;20414;-66
2022/07/09 09:16:28;;;;;;;1.90;1.70;;;19.40;99.90;;;;;;5032455;28;20452;-66
2022/07/09 09:18:55;;;;;;;1.50;1.37;;;18.80;99.90;;;;;;5032468;28;20483;-65
2022/07/09 09:21:26;;;;;;;2.50;1.60;;;19.10;99.90;;;;;;5032358;28;20864;-66
2022/07/09 09:23:53;;;;;;;1.40;1.30;;;18.60;99.90;;;;;;5032632;28;20404;-68
2022/07/09 09:26:20;;;;;;;3.07;1.57;;;18.30;99.90;;;;;;5032690;28;20467;-66
2022/07/09 09:28:46;;;;;;;3.40;2.60;;;17.40;99.90;;;;;;5032554;28;20441;-69
2022/07/09 09:31:32;;;;;;;3.07;2.27;;;17.50;99.90;;;;;;5032433;28;20473;-67
2022/07/09 09:34:14;;;;;;;3.23;2.57;;;17.50;99.90;;;;;;5032138;28;20439;-66
2022/07/09 09:36:51;;;;;;;2.60;2.30;;;17.80;99.90;;;;;;5032208;28;20769;-67
2022/07/09 09:39:22;;;;;;;3.23;1.80;;;17.40;99.90;;;;;;5032006;28;20470;-66
2022/07/09 09:41:50;;;;;;;3.30;3.00;;;17.30;99.90;;;;;;5031988;28;20402;-67
2022/07/09 09:44:18;;;;;;;5.17;2.77;;;17.40;99.90;;;;;;5032281;28;20394;-65
2022/07/09 09:46:45;;;;;;;2.83;2.63;;;17.80;99.90;;;;;;5031710;28;20414;-66
2022/07/09 09:49:15;;;;;;;3.60;2.27;;;17.90;99.90;;;;;;5029744;28;20437;-67
2022/07/09 09:51:49;;;;;;;5.70;1.80;;;17.80;99.90;;;;;;5031964;28;20408;-66
2022/07/09 09:54:17;;;;;;;3.20;1.40;;;17.80;99.90;;;;;;5018311;28;20460;-66
2022/07/09 09:56:43;;;;;;;2.33;1.80;;;17.70;99.90;;;;;;5031847;28;20816;-66
2022/07/09 09:59:10;;;;;;;2.20;2.00;;;18.10;99.90;;;;;;5031806;28;20489;-66
2022/07/09 10:01:36;;;;;;;2.40;1.87;;;18.00;99.90;;;;;;5031679;28;20430;-66
2022/07/09 10:04:01;;;;;;;4.37;2.27;;;18.80;99.90;;;;;;5032092;28;20405;-66
2022/07/09 10:06:27;;;;;;;5.13;2.33;;;19.00;99.90;;;;;;5031773;28;20515;-66
2022/07/09 10:08:54;;;;;;;2.90;2.30;;;19.30;99.90;;;;;;5031414;28;20712;-66
2022/07/09 10:11:21;;;;;;;1.73;1.63;;;19.50;99.90;;;;;;5031379;28;20206;-66
2022/07/09 10:13:52;;;;;;;2.37;2.13;;;19.20;99.90;;;;;;5031639;28;20770;-66
2022/07/09 10:16:17;;;;;;;4.60;1.90;;;19.30;99.90;;;;;;5031268;28;20428;-66
2022/07/09 10:18:53;;;;;;;4.80;1.73;;;19.30;99.90;;;;;;5031113;28;20461;-66
2022/07/09 10:21:30;;;;;;;4.80;2.10;;;19.30;99.90;;;;;;5031409;28;20644;-66
2022/07/09 10:23:55;;;;;;;3.73;1.60;;;19.80;99.90;;;;;;5030409;28;20409;-66
2022/07/09 10:26:21;;;;;;;3.60;1.93;;;19.90;99.90;;;;;;5031215;28;20407;-66
2022/07/09 10:28:46;;;;;;;2.73;1.90;;;19.70;99.90;;;;;;5031313;28;20255;-66
2022/07/09 10:31:20;;;;;;;2.73;1.97;;;19.80;99.90;;;;;;5031202;28;20223;-66
2022/07/09 10:33:54;;;;;;;2.93;1.70;;;20.00;99.90;;;;;;5031335;28;20221;-67
2022/07/09 10:36:20;;;;;;;3.90;2.80;;;19.70;99.90;;;;;;5031053;28;20914;-66
2022/07/09 10:38:55;;;;;;;1.90;1.70;;;19.40;99.90;;;;;;5031099;28;20454;-66
2022/07/09 10:41:23;;;;;;;3.27;2.20;;;19.80;99.90;;;;;;5033017;28;20198;-67
2022/07/09 10:43:52;;;;;;;3.40;2.43;;;20.20;99.90;;;;;;5031209;28;20853;-67
2022/07/09 10:46:18;;;;;;;3.10;1.50;;;20.40;99.90;;;;;;5030993;28;20976;-66
2022/07/09 10:48:46;;;;;;;1.57;1.40;;;20.90;99.90;;;;;;5031074;28;20769;-66
2022/07/09 10:51:23;;;;;;;2.83;1.60;;;20.40;99.90;;;;;;5031042;28;20440;-67
2022/07/09 10:53:49;;;;;;;2.03;1.80;;;21.20;99.90;;;;;;5031168;28;20403;-66
2022/07/09 10:56:21;;;;;;;2.17;1.60;;;20.90;99.90;;;;;;5030798;28;20421;-66
2022/07/09 10:58:49;;;;;;;1.93;1.50;;;20.90;99.90;;;;;;5030885;28;20195;-66
2022/07/09 11:01:24;;;;;;;2.40;1.40;;;21.40;99.90;;;;;;5030752;28;20527;-66
2022/07/09 11:03:50;;;;;;;1.87;1.77;;;21.70;99.90;;;;;;5031357;28;20459;-68
2022/07/09 11:06:16;;;;;;;2.23;1.70;;;21.20;99.90;;;;;;5030821;28;20413;-66
2022/07/09 11:08:42;;;;;;;2.70;1.73;;;21.20;99.90;;;;;;5030990;28;20421;-66
2022/07/09 11:11:07;;;;;;;3.90;3.40;;;21.60;99.90;;;;;;5030691;28;20270;-66
2022/07/09 11:13:33;;;;;;;2.90;1.77;;;21.70;99.90;;;;;;5030877;28;20173;-67
2022/07/09 11:16:00;;;;;;;4.60;1.80;;;21.40;99.90;;;;;;5030343;28;20183;-66
2022/07/09 11:18:27;;;;;;;3.57;1.97;;;21.60;99.90;;;;;;5032907;28;20196;-66
2022/07/09 11:20:53;;;;;;;1.97;1.60;;;21.30;99.90;;;;;;5034670;28;20791;-67
2022/07/09 11:23:18;;;;;;;4.40;1.73;;;21.30;99.90;;;;;;5035105;28;20500;-67
2022/07/09 11:25:46;;;;;;;1.67;1.30;;;21.90;99.90;;;;;;5034423;28;20177;-66
2022/07/09 11:28:20;;;;;;;1.50;1.33;;;21.70;99.90;;;;;;5034704;28;20174;-66
2022/07/09 11:30:45;;;;;;;1.83;1.33;;;21.60;99.90;;;;;;5034558;28;20473;-66
2022/07/09 11:33:14;;;;;;;2.20;1.60;;;21.50;99.90;;;;;;5034750;28;20923;-66
2022/07/09 11:35:44;;;;;;;1.83;1.53;;;21.80;99.90;;;;;;5033000;28;20235;-66
2022/07/09 11:38:10;;;;;;;2.13;1.33;;;22.00;99.90;;;;;;5034651;28;20460;-66
2022/07/09 11:40:36;;;;;;;4.97;1.30;;;21.90;99.90;;;;;;5034450;28;20476;-66
2022/07/09 11:43:01;;;;;;;1.30;1.20;;;21.90;99.90;;;;;;5034558;28;20978;-66
2022/07/09 11:45:28;;;;;;;1.40;1.30;;;21.40;99.90;;;;;;5034192;28;20684;-66
2022/07/09 11:48:08;;;;;;;1.50;1.40;;;22.10;99.90;;;;;;5034451;28;20185;-66
2022/07/09 11:50:41;;;;;;;1.70;1.30;;;21.70;99.90;;;;;;5034422;28;20427;-66
2022/07/09 11:53:07;;;;;;;2.20;1.30;;;21.60;99.90;;;;;;5034529;28;20435;-66
2022/07/09 11:55:35;;;;;;;1.73;1.57;;;21.40;99.90;;;;;;5034322;28;20417;-66
2022/07/09 11:58:08;;;;;;;3.13;1.20;;;21.60;99.90;;;;;;5034346;28;20207;-66
2022/07/09 12:00:39;;;;;;;1.10;1.00;;;21.50;99.90;;;;;;5034227;28;20436;-66
2022/07/09 12:03:05;;;;;;;1.77;1.23;;;21.70;99.90;;;;;;5033933;28;20419;-66
2022/07/09 12:05:33;;;;;;;1.33;1.23;;;21.80;99.90;;;;;;5034485;28;20772;-66
2022/07/09 12:08:02;;;;;;;1.40;1.30;;;21.70;99.90;;;;;;5034520;28;20182;-67
2022/07/09 12:10:32;;;;;;;1.73;1.33;;;21.90;99.90;;;;;;5034200;28;20539;-67
2022/07/09 12:13:00;;;;;;;1.67;1.57;;;22.00;99.90;;;;;;5034461;28;20438;-67
2022/07/09 12:15:27;;;;;;;1.90;1.40;;;21.70;99.90;;;;;;5033464;28;20497;-67
2022/07/09 12:17:54;;;;;;;2.50;1.33;;;21.60;99.90;;;;;;5033930;28;21046;-67
2022/07/09 12:20:23;;;;;;;1.10;0.83;;;21.80;99.90;;;;;;5031712;28;20451;-67
2022/07/09 12:22:49;;;;;;;2.67;1.50;;;21.60;99.90;;;;;;5023964;28;20435;-65
2022/07/09 12:25:15;;;;;;;1.60;1.40;;;21.90;99.90;;;;;;5032779;28;21020;-66
2022/07/09 12:27:40;;;;;;;2.40;1.57;;;21.50;99.90;;;;;;5031625;28;20456;-66
2022/07/09 12:30:06;;;;;;;2.00;1.40;;;21.20;99.90;;;;;;5050598;22;20223;-74
2022/07/09 12:32:32;;;;;;;2.90;1.40;;;20.90;99.90;;;;;;5013258;28;20543;-74
2022/07/09 12:34:57;;;;;;;1.83;1.30;;;21.40;99.90;;;;;;5012441;28;20491;-75
2022/07/09 12:37:23;;;;;;;1.30;1.20;;;21.40;99.90;;;;;;5011757;28;20307;-75
2022/07/09 12:39:49;;;;;;;2.00;1.50;;;21.40;99.90;;;;;;5012655;28;20637;-75
2022/07/09 12:42:15;;;;;;;1.80;1.50;;;21.70;99.90;;;;;;5013890;28;20169;-75
2022/07/09 12:44:40;;;;;;;1.73;1.63;;;21.30;99.90;;;;;;5012276;28;20444;-76